sensor_id;sensor_type;location;lat;lon;timestamp;P1;durP1;ratioP1;P2;durP2;ratioP2
23543;SDS011;11950;51.230;4.012;2022-07-22T00:01:27;6.28;;;1.73;;
23543;SDS011;11950;51.230;4.012;2022-07-22T00:03:53;2.75;;;1.52;;
23543;SDS011;11950;51.230;4.012;2022-07-22T00:06:20;4.60;;;1.33;;
23543;SDS011;11950;51.230;4.012;2022-07-22T00:08:46;3.40;;;1.27;;
23543;SDS011;11950;51.230;4.012;2022-07-22T00:11:13;5.28;;;1.80;;
23543;SDS011;11950;51.230;4.012;2022-07-22T00:13:39;3.80;;;1.40;;
23543;SDS011;11950;51.230;4.012;2022-07-22T00:16:06;6.40;;;1.50;;
23543;SDS011;11950;51.230;4.012;2022-07-22T00:18:32;3.88;;;1.63;;
23543;SDS011;11950;51.230;4.012;2022-07-22T00:20:59;4.72;;;1.73;;
23543;SDS011;11950;51.230;4.012;2022-07-22T00:23:25;3.15;;;1.42;;
23543;SDS011;11950;51.230;4.012;2022-07-22T00:25:51;2.47;;;1.40;;
23543;SDS011;11950;51.230;4.012;2022-07-22T00:28:19;2.58;;;1.50;;
23543;SDS011;11950;51.230;4.012;2022-07-22T00:30:46;5.63;;;1.67;;
23543;SDS011;11950;51.230;4.012;2022-07-22T00:33:12;5.25;;;1.55;;
23543;SDS011;11950;51.230;4.012;2022-07-22T00:35:39;4.13;;;1.60;;
23543;SDS011;11950;51.230;4.012;2022-07-22T00:38:05;4.15;;;1.45;;
23543;SDS011;11950;51.230;4.012;2022-07-22T00:40:31;3.92;;;1.50;;
23543;SDS011;11950;51.230;4.012;2022-07-22T00:42:57;4.88;;;1.70;;
23543;SDS011;11950;51.230;4.012;2022-07-22T00:45:26;4.93;;;1.60;;
23543;SDS011;11950;51.230;4.012;2022-07-22T00:47:52;4.00;;;1.50;;
23543;SDS011;11950;51.230;4.012;2022-07-22T00:50:19;4.00;;;1.58;;
23543;SDS011;11950;51.230;4.012;2022-07-22T00:52:46;3.80;;;1.95;;
23543;SDS011;11950;51.230;4.012;2022-07-22T00:55:13;5.78;;;1.70;;
23543;SDS011;11950;51.230;4.012;2022-07-22T00:57:40;4.55;;;2.05;;
23543;SDS011;11950;51.230;4.012;2022-07-22T01:00:09;4.40;;;1.70;;
23543;SDS011;11950;51.230;4.012;2022-07-22T01:02:38;1.77;;;1.40;;
23543;SDS011;11950;51.230;4.012;2022-07-22T01:05:05;4.70;;;1.40;;
23543;SDS011;11950;51.230;4.012;2022-07-22T01:07:31;3.25;;;1.50;;
23543;SDS011;11950;51.230;4.012;2022-07-22T01:09:58;5.15;;;1.80;;
23543;SDS011;11950;51.230;4.012;2022-07-22T01:12:24;5.30;;;1.85;;
23543;SDS011;11950;51.230;4.012;2022-07-22T01:14:51;4.13;;;1.80;;
23543;SDS011;11950;51.230;4.012;2022-07-22T01:17:18;4.82;;;1.83;;
23543;SDS011;11950;51.230;4.012;2022-07-22T01:19:45;2.38;;;1.67;;
23543;SDS011;11950;51.230;4.012;2022-07-22T01:22:11;4.28;;;1.98;;
23543;SDS011;11950;51.230;4.012;2022-07-22T01:24:38;5.78;;;1.88;;
23543;SDS011;11950;51.230;4.012;2022-07-22T01:27:05;2.85;;;1.80;;
23543;SDS011;11950;51.230;4.012;2022-07-22T01:29:31;4.95;;;1.75;;
23543;SDS011;11950;51.230;4.012;2022-07-22T01:31:57;3.55;;;1.58;;
23543;SDS011;11950;51.230;4.012;2022-07-22T01:34:24;10.20;;;1.70;;
23543;SDS011;11950;51.230;4.012;2022-07-22T01:36:52;6.65;;;1.85;;
23543;SDS011;11950;51.230;4.012;2022-07-22T01:39:18;5.00;;;1.73;;
23543;SDS011;11950;51.230;4.012;2022-07-22T01:41:44;3.97;;;1.95;;
23543;SDS011;11950;51.230;4.012;2022-07-22T01:44:12;5.13;;;2.45;;
23543;SDS011;11950;51.230;4.012;2022-07-22T01:46:38;4.43;;;1.65;;
23543;SDS011;11950;51.230;4.012;2022-07-22T01:49:04;4.10;;;1.85;;
23543;SDS011;11950;51.230;4.012;2022-07-22T01:51:36;5.80;;;1.77;;
23543;SDS011;11950;51.230;4.012;2022-07-22T01:54:03;5.18;;;1.95;;
23543;SDS011;11950;51.230;4.012;2022-07-22T01:56:30;5.30;;;1.98;;
23543;SDS011;11950;51.230;4.012;2022-07-22T01:58:57;7.72;;;2.30;;
23543;SDS011;11950;51.230;4.012;2022-07-22T02:01:26;5.13;;;2.00;;
23543;SDS011;11950;51.230;4.012;2022-07-22T02:03:53;4.63;;;1.80;;
23543;SDS011;11950;51.230;4.012;2022-07-22T02:06:19;3.40;;;1.85;;
23543;SDS011;11950;51.230;4.012;2022-07-22T02:08:46;3.30;;;1.70;;
23543;SDS011;11950;51.230;4.012;2022-07-22T02:11:14;4.93;;;2.25;;
23543;SDS011;11950;51.230;4.012;2022-07-22T02:13:54;5.55;;;1.70;;
23543;SDS011;11950;51.230;4.012;2022-07-22T02:16:21;4.47;;;1.55;;
23543;SDS011;11950;51.230;4.012;2022-07-22T02:18:49;3.83;;;1.60;;
23543;SDS011;11950;51.230;4.012;2022-07-22T02:21:16;4.20;;;1.75;;
23543;SDS011;11950;51.230;4.012;2022-07-22T02:23:42;5.93;;;2.00;;
23543;SDS011;11950;51.230;4.012;2022-07-22T02:26:10;4.28;;;1.63;;
23543;SDS011;11950;51.230;4.012;2022-07-22T02:28:36;2.08;;;1.40;;
23543;SDS011;11950;51.230;4.012;2022-07-22T02:31:02;2.92;;;1.55;;
23543;SDS011;11950;51.230;4.012;2022-07-22T02:33:29;2.38;;;1.52;;
23543;SDS011;11950;51.230;4.012;2022-07-22T02:35:56;6.95;;;1.95;;
23543;SDS011;11950;51.230;4.012;2022-07-22T02:38:23;4.55;;;1.65;;
23543;SDS011;11950;51.230;4.012;2022-07-22T02:40:50;2.47;;;1.52;;
23543;SDS011;11950;51.230;4.012;2022-07-22T02:43:16;5.75;;;1.70;;
23543;SDS011;11950;51.230;4.012;2022-07-22T02:45:43;4.18;;;1.33;;
23543;SDS011;11950;51.230;4.012;2022-07-22T02:48:09;5.78;;;2.15;;
23543;SDS011;11950;51.230;4.012;2022-07-22T02:50:36;3.30;;;1.55;;
23543;SDS011;11950;51.230;4.012;2022-07-22T02:53:05;4.53;;;1.50;;
23543;SDS011;11950;51.230;4.012;2022-07-22T02:55:36;2.40;;;1.88;;
23543;SDS011;11950;51.230;4.012;2022-07-22T02:58:07;4.38;;;1.70;;
23543;SDS011;11950;51.230;4.012;2022-07-22T03:00:35;4.43;;;1.97;;
23543;SDS011;11950;51.230;4.012;2022-07-22T03:03:03;4.28;;;2.28;;
23543;SDS011;11950;51.230;4.012;2022-07-22T03:05:32;6.07;;;1.88;;
23543;SDS011;11950;51.230;4.012;2022-07-22T03:08:16;5.05;;;1.60;;
23543;SDS011;11950;51.230;4.012;2022-07-22T03:10:43;3.60;;;1.67;;
23543;SDS011;11950;51.230;4.012;2022-07-22T03:13:10;4.90;;;2.28;;
23543;SDS011;11950;51.230;4.012;2022-07-22T03:15:37;2.63;;;1.50;;
23543;SDS011;11950;51.230;4.012;2022-07-22T03:18:04;4.72;;;1.60;;
23543;SDS011;11950;51.230;4.012;2022-07-22T03:20:31;8.48;;;1.73;;
23543;SDS011;11950;51.230;4.012;2022-07-22T03:22:59;2.90;;;1.30;;
23543;SDS011;11950;51.230;4.012;2022-07-22T03:25:26;4.95;;;1.70;;
23543;SDS011;11950;51.230;4.012;2022-07-22T03:27:52;3.88;;;1.50;;
23543;SDS011;11950;51.230;4.012;2022-07-22T03:30:18;3.88;;;1.50;;
23543;SDS011;11950;51.230;4.012;2022-07-22T03:32:45;2.42;;;1.40;;
23543;SDS011;11950;51.230;4.012;2022-07-22T03:35:13;2.45;;;1.58;;
23543;SDS011;11950;51.230;4.012;2022-07-22T03:37:43;2.28;;;1.10;;
23543;SDS011;11950;51.230;4.012;2022-07-22T03:40:09;3.45;;;1.48;;
23543;SDS011;11950;51.230;4.012;2022-07-22T03:42:38;5.90;;;1.30;;
23543;SDS011;11950;51.230;4.012;2022-07-22T03:45:05;2.97;;;1.50;;
23543;SDS011;11950;51.230;4.012;2022-07-22T03:47:36;3.92;;;1.60;;
23543;SDS011;11950;51.230;4.012;2022-07-22T03:50:03;3.13;;;1.52;;
23543;SDS011;11950;51.230;4.012;2022-07-22T03:52:30;8.60;;;1.60;;
23543;SDS011;11950;51.230;4.012;2022-07-22T03:54:58;4.57;;;1.30;;
23543;SDS011;11950;51.230;4.012;2022-07-22T03:57:25;2.95;;;1.50;;
23543;SDS011;11950;51.230;4.012;2022-07-22T04:00:01;4.75;;;2.60;;
23543;SDS011;11950;51.230;4.012;2022-07-22T04:02:39;4.47;;;1.83;;
23543;SDS011;11950;51.230;4.012;2022-07-22T04:05:08;3.15;;;1.80;;
23543;SDS011;11950;51.230;4.012;2022-07-22T04:07:35;3.28;;;2.03;;
23543;SDS011;11950;51.230;4.012;2022-07-22T04:10:02;4.57;;;1.88;;
23543;SDS011;11950;51.230;4.012;2022-07-22T04:12:36;8.73;;;3.30;;
23543;SDS011;11950;51.230;4.012;2022-07-22T04:15:30;4.50;;;1.33;;
23543;SDS011;11950;51.230;4.012;2022-07-22T04:17:56;3.88;;;1.40;;
23543;SDS011;11950;51.230;4.012;2022-07-22T04:20:23;3.53;;;1.50;;
23543;SDS011;11950;51.230;4.012;2022-07-22T04:23:15;6.03;;;1.65;;
23543;SDS011;11950;51.230;4.012;2022-07-22T04:25:43;4.72;;;1.67;;
23543;SDS011;11950;51.230;4.012;2022-07-22T04:28:10;3.45;;;1.50;;
23543;SDS011;11950;51.230;4.012;2022-07-22T04:30:39;2.05;;;1.48;;
23543;SDS011;11950;51.230;4.012;2022-07-22T04:33:05;2.83;;;1.67;;
23543;SDS011;11950;51.230;4.012;2022-07-22T04:35:32;4.47;;;1.95;;
23543;SDS011;11950;51.230;4.012;2022-07-22T04:38:17;3.40;;;1.40;;
23543;SDS011;11950;51.230;4.012;2022-07-22T04:40:54;3.03;;;1.60;;
23543;SDS011;11950;51.230;4.012;2022-07-22T04:43:22;3.35;;;1.50;;
23543;SDS011;11950;51.230;4.012;2022-07-22T04:45:48;6.03;;;1.92;;
23543;SDS011;11950;51.230;4.012;2022-07-22T04:48:14;4.18;;;1.80;;
23543;SDS011;11950;51.230;4.012;2022-07-22T04:50:42;3.33;;;1.95;;
23543;SDS011;11950;51.230;4.012;2022-07-22T04:53:08;7.47;;;1.85;;
23543;SDS011;11950;51.230;4.012;2022-07-22T04:55:34;5.95;;;1.85;;
23543;SDS011;11950;51.230;4.012;2022-07-22T04:58:00;4.72;;;1.85;;
23543;SDS011;11950;51.230;4.012;2022-07-22T05:00:28;2.70;;;1.80;;
23543;SDS011;11950;51.230;4.012;2022-07-22T05:02:55;5.10;;;2.20;;
23543;SDS011;11950;51.230;4.012;2022-07-22T05:05:22;2.53;;;1.95;;
23543;SDS011;11950;51.230;4.012;2022-07-22T05:07:51;2.95;;;1.73;;
23543;SDS011;11950;51.230;4.012;2022-07-22T05:10:18;2.95;;;1.90;;
23543;SDS011;11950;51.230;4.012;2022-07-22T05:12:44;5.85;;;1.95;;
23543;SDS011;11950;51.230;4.012;2022-07-22T05:15:11;5.78;;;1.73;;
23543;SDS011;11950;51.230;4.012;2022-07-22T05:17:38;2.45;;;1.58;;
23543;SDS011;11950;51.230;4.012;2022-07-22T05:20:19;5.53;;;1.70;;
23543;SDS011;11950;51.230;4.012;2022-07-22T05:22:46;2.58;;;1.60;;
23543;SDS011;11950;51.230;4.012;2022-07-22T05:25:33;4.28;;;1.55;;
23543;SDS011;11950;51.230;4.012;2022-07-22T05:28:00;3.70;;;1.58;;
23543;SDS011;11950;51.230;4.012;2022-07-22T05:30:35;4.15;;;1.48;;
23543;SDS011;11950;51.230;4.012;2022-07-22T05:33:03;4.72;;;1.50;;
23543;SDS011;11950;51.230;4.012;2022-07-22T05:35:47;2.85;;;1.38;;
23543;SDS011;11950;51.230;4.012;2022-07-22T05:38:14;2.58;;;1.38;;
23543;SDS011;11950;51.230;4.012;2022-07-22T05:40:40;4.15;;;1.52;;
23543;SDS011;11950;51.230;4.012;2022-07-22T05:43:07;2.17;;;1.48;;
23543;SDS011;11950;51.230;4.012;2022-07-22T05:45:33;4.60;;;1.50;;
23543;SDS011;11950;51.230;4.012;2022-07-22T05:48:00;4.47;;;1.67;;
23543;SDS011;11950;51.230;4.012;2022-07-22T05:50:28;3.10;;;1.80;;
23543;SDS011;11950;51.230;4.012;2022-07-22T05:52:55;6.35;;;2.40;;
23543;SDS011;11950;51.230;4.012;2022-07-22T05:55:21;5.50;;;2.28;;
23543;SDS011;11950;51.230;4.012;2022-07-22T05:57:48;6.10;;;2.65;;
23543;SDS011;11950;51.230;4.012;2022-07-22T06:00:14;4.65;;;2.30;;
23543;SDS011;11950;51.230;4.012;2022-07-22T06:02:42;4.20;;;2.20;;
23543;SDS011;11950;51.230;4.012;2022-07-22T06:07:39;4.55;;;2.38;;
23543;SDS011;11950;51.230;4.012;2022-07-22T06:10:08;4.30;;;2.17;;
23543;SDS011;11950;51.230;4.012;2022-07-22T06:12:35;5.88;;;2.33;;
23543;SDS011;11950;51.230;4.012;2022-07-22T06:15:01;3.30;;;2.22;;
23543;SDS011;11950;51.230;4.012;2022-07-22T06:17:29;5.95;;;2.58;;
23543;SDS011;11950;51.230;4.012;2022-07-22T06:19:55;8.55;;;2.15;;
23543;SDS011;11950;51.230;4.012;2022-07-22T06:22:22;5.47;;;2.20;;
23543;SDS011;11950;51.230;4.012;2022-07-22T06:24:49;4.13;;;2.10;;
23543;SDS011;11950;51.230;4.012;2022-07-22T06:27:16;4.57;;;2.15;;
23543;SDS011;11950;51.230;4.012;2022-07-22T06:29:42;7.68;;;2.92;;
23543;SDS011;11950;51.230;4.012;2022-07-22T06:32:09;7.05;;;2.60;;
23543;SDS011;11950;51.230;4.012;2022-07-22T06:34:35;6.53;;;2.72;;
23543;SDS011;11950;51.230;4.012;2022-07-22T06:37:04;7.40;;;3.03;;
23543;SDS011;11950;51.230;4.012;2022-07-22T06:39:31;5.22;;;2.20;;
23543;SDS011;11950;51.230;4.012;2022-07-22T06:42:13;10.55;;;3.20;;
23543;SDS011;11950;51.230;4.012;2022-07-22T06:44:58;4.00;;;2.20;;
23543;SDS011;11950;51.230;4.012;2022-07-22T06:47:40;4.22;;;1.60;;
23543;SDS011;11950;51.230;4.012;2022-07-22T06:50:09;4.47;;;2.03;;
23543;SDS011;11950;51.230;4.012;2022-07-22T06:52:39;5.35;;;1.90;;
23543;SDS011;11950;51.230;4.012;2022-07-22T06:55:07;9.47;;;1.87;;
23543;SDS011;11950;51.230;4.012;2022-07-22T06:57:37;6.65;;;1.90;;
23543;SDS011;11950;51.230;4.012;2022-07-22T07:00:04;5.05;;;1.40;;
23543;SDS011;11950;51.230;4.012;2022-07-22T07:02:41;3.97;;;1.60;;
23543;SDS011;11950;51.230;4.012;2022-07-22T07:05:07;6.47;;;1.85;;
23543;SDS011;11950;51.230;4.012;2022-07-22T07:07:34;5.22;;;1.70;;
23543;SDS011;11950;51.230;4.012;2022-07-22T07:10:01;7.03;;;1.67;;
23543;SDS011;11950;51.230;4.012;2022-07-22T07:12:48;6.63;;;1.70;;
23543;SDS011;11950;51.230;4.012;2022-07-22T07:15:24;6.25;;;1.92;;
23543;SDS011;11950;51.230;4.012;2022-07-22T07:17:53;8.23;;;1.67;;
23543;SDS011;11950;51.230;4.012;2022-07-22T07:20:22;9.88;;;2.40;;
23543;SDS011;11950;51.230;4.012;2022-07-22T07:22:49;6.25;;;2.05;;
23543;SDS011;11950;51.230;4.012;2022-07-22T07:25:16;6.85;;;2.10;;
23543;SDS011;11950;51.230;4.012;2022-07-22T07:27:42;7.18;;;2.90;;
23543;SDS011;11950;51.230;4.012;2022-07-22T07:30:11;7.15;;;2.47;;
23543;SDS011;11950;51.230;4.012;2022-07-22T07:32:38;9.27;;;2.20;;
23543;SDS011;11950;51.230;4.012;2022-07-22T07:35:05;5.18;;;2.15;;
23543;SDS011;11950;51.230;4.012;2022-07-22T07:37:32;4.75;;;2.28;;
23543;SDS011;11950;51.230;4.012;2022-07-22T07:39:59;5.05;;;2.10;;
23543;SDS011;11950;51.230;4.012;2022-07-22T07:42:25;5.60;;;2.28;;
23543;SDS011;11950;51.230;4.012;2022-07-22T07:44:52;8.13;;;2.83;;
23543;SDS011;11950;51.230;4.012;2022-07-22T07:47:19;5.63;;;2.22;;
23543;SDS011;11950;51.230;4.012;2022-07-22T07:49:48;5.78;;;2.33;;
23543;SDS011;11950;51.230;4.012;2022-07-22T07:52:15;3.28;;;2.30;;
23543;SDS011;11950;51.230;4.012;2022-07-22T07:54:42;8.38;;;2.47;;
23543;SDS011;11950;51.230;4.012;2022-07-22T07:57:11;3.80;;;2.38;;
23543;SDS011;11950;51.230;4.012;2022-07-22T07:59:38;6.35;;;2.33;;
23543;SDS011;11950;51.230;4.012;2022-07-22T08:02:05;2.78;;;2.40;;
23543;SDS011;11950;51.230;4.012;2022-07-22T08:04:33;6.72;;;2.97;;
23543;SDS011;11950;51.230;4.012;2022-07-22T08:07:03;5.93;;;2.88;;
23543;SDS011;11950;51.230;4.012;2022-07-22T08:09:31;5.65;;;2.85;;
23543;SDS011;11950;51.230;4.012;2022-07-22T08:12:00;3.97;;;2.80;;
23543;SDS011;11950;51.230;4.012;2022-07-22T08:14:39;7.57;;;3.15;;
23543;SDS011;11950;51.230;4.012;2022-07-22T08:17:23;6.90;;;2.60;;
23543;SDS011;11950;51.230;4.012;2022-07-22T08:19:50;5.85;;;2.58;;
23543;SDS011;11950;51.230;4.012;2022-07-22T08:22:16;7.07;;;3.08;;
23543;SDS011;11950;51.230;4.012;2022-07-22T08:24:44;9.20;;;3.33;;
23543;SDS011;11950;51.230;4.012;2022-07-22T08:27:14;8.60;;;2.80;;
23543;SDS011;11950;51.230;4.012;2022-07-22T08:29:41;7.13;;;2.78;;
23543;SDS011;11950;51.230;4.012;2022-07-22T08:32:07;5.68;;;3.03;;
23543;SDS011;11950;51.230;4.012;2022-07-22T08:34:34;8.75;;;3.95;;
23543;SDS011;11950;51.230;4.012;2022-07-22T08:37:01;8.25;;;4.03;;
23543;SDS011;11950;51.230;4.012;2022-07-22T08:39:27;8.82;;;3.50;;
23543;SDS011;11950;51.230;4.012;2022-07-22T08:41:54;6.47;;;3.47;;
23543;SDS011;11950;51.230;4.012;2022-07-22T08:44:22;10.88;;;3.42;;
23543;SDS011;11950;51.230;4.012;2022-07-22T08:46:48;10.23;;;3.97;;
23543;SDS011;11950;51.230;4.012;2022-07-22T08:49:18;6.38;;;3.63;;
23543;SDS011;11950;51.230;4.012;2022-07-22T08:51:52;6.28;;;2.97;;
23543;SDS011;11950;51.230;4.012;2022-07-22T08:54:22;5.63;;;2.90;;
23543;SDS011;11950;51.230;4.012;2022-07-22T08:56:49;6.75;;;3.00;;
23543;SDS011;11950;51.230;4.012;2022-07-22T08:59:16;6.50;;;2.97;;
23543;SDS011;11950;51.230;4.012;2022-07-22T09:04:31;6.32;;;2.80;;
23543;SDS011;11950;51.230;4.012;2022-07-22T09:06:58;8.27;;;2.80;;
23543;SDS011;11950;51.230;4.012;2022-07-22T09:09:31;2.97;;;2.30;;
23543;SDS011;11950;51.230;4.012;2022-07-22T09:12:25;7.32;;;2.72;;
23543;SDS011;11950;51.230;4.012;2022-07-22T09:15:36;6.55;;;3.00;;
23543;SDS011;11950;51.230;4.012;2022-07-22T09:21:28;5.25;;;2.75;;
23543;SDS011;11950;51.230;4.012;2022-07-22T09:24:25;8.40;;;3.25;;
23543;SDS011;11950;51.230;4.012;2022-07-22T09:27:09;8.48;;;2.90;;
23543;SDS011;11950;51.230;4.012;2022-07-22T09:29:49;7.13;;;2.70;;
23543;SDS011;11950;51.230;4.012;2022-07-22T09:32:17;5.35;;;2.60;;
23543;SDS011;11950;51.230;4.012;2022-07-22T09:35:04;7.07;;;3.05;;
23543;SDS011;11950;51.230;4.012;2022-07-22T09:37:57;6.68;;;3.08;;
23543;SDS011;11950;51.230;4.012;2022-07-22T09:40:29;6.03;;;2.72;;
23543;SDS011;11950;51.230;4.012;2022-07-22T09:42:58;9.80;;;3.10;;
23543;SDS011;11950;51.230;4.012;2022-07-22T09:45:27;7.30;;;2.65;;
23543;SDS011;11950;51.230;4.012;2022-07-22T09:47:55;10.43;;;3.38;;
23543;SDS011;11950;51.230;4.012;2022-07-22T09:50:41;4.18;;;2.60;;
23543;SDS011;11950;51.230;4.012;2022-07-22T09:53:27;3.97;;;2.47;;
23543;SDS011;11950;51.230;4.012;2022-07-22T09:56:00;5.60;;;3.08;;
23543;SDS011;11950;51.230;4.012;2022-07-22T09:58:28;6.20;;;2.75;;
23543;SDS011;11950;51.230;4.012;2022-07-22T10:01:00;6.05;;;2.83;;
23543;SDS011;11950;51.230;4.012;2022-07-22T10:03:31;5.47;;;2.72;;
23543;SDS011;11950;51.230;4.012;2022-07-22T10:06:01;5.73;;;2.70;;
23543;SDS011;11950;51.230;4.012;2022-07-22T10:08:30;3.38;;;2.70;;
23543;SDS011;11950;51.230;4.012;2022-07-22T10:11:04;3.30;;;2.50;;
23543;SDS011;11950;51.230;4.012;2022-07-22T10:13:33;8.05;;;3.15;;
23543;SDS011;11950;51.230;4.012;2022-07-22T10:16:03;9.52;;;2.92;;
23543;SDS011;11950;51.230;4.012;2022-07-22T10:18:31;4.50;;;2.05;;
23543;SDS011;11950;51.230;4.012;2022-07-22T10:21:08;4.47;;;2.53;;
23543;SDS011;11950;51.230;4.012;2022-07-22T10:23:36;4.65;;;2.72;;
23543;SDS011;11950;51.230;4.012;2022-07-22T10:26:22;5.50;;;2.55;;
23543;SDS011;11950;51.230;4.012;2022-07-22T10:29:29;6.63;;;2.90;;
23543;SDS011;11950;51.230;4.012;2022-07-22T10:34:44;5.60;;;2.90;;
23543;SDS011;11950;51.230;4.012;2022-07-22T10:40:18;3.88;;;2.45;;
23543;SDS011;11950;51.230;4.012;2022-07-22T10:45:50;9.82;;;2.40;;
23543;SDS011;11950;51.230;4.012;2022-07-22T10:48:21;7.00;;;2.50;;
23543;SDS011;11950;51.230;4.012;2022-07-22T10:51:33;3.83;;;2.40;;
23543;SDS011;11950;51.230;4.012;2022-07-22T10:53:53;5.55;;;2.60;;
23543;SDS011;11950;51.230;4.012;2022-07-22T10:56:31;8.05;;;2.30;;
23543;SDS011;11950;51.230;4.012;2022-07-22T10:59:07;3.72;;;2.22;;
23543;SDS011;11950;51.230;4.012;2022-07-22T11:01:37;6.15;;;2.30;;
23543;SDS011;11950;51.230;4.012;2022-07-22T11:06:39;6.97;;;2.13;;
23543;SDS011;11950;51.230;4.012;2022-07-22T11:09:08;4.40;;;2.22;;
23543;SDS011;11950;51.230;4.012;2022-07-22T11:14:23;4.88;;;2.30;;
23543;SDS011;11950;51.230;4.012;2022-07-22T11:16:57;5.75;;;2.85;;
23543;SDS011;11950;51.230;4.012;2022-07-22T11:19:29;4.18;;;2.47;;
23543;SDS011;11950;51.230;4.012;2022-07-22T11:21:57;6.07;;;2.42;;
23543;SDS011;11950;51.230;4.012;2022-07-22T11:24:27;6.53;;;3.03;;
23543;SDS011;11950;51.230;4.012;2022-07-22T11:26:55;5.38;;;2.88;;
23543;SDS011;11950;51.230;4.012;2022-07-22T11:29:28;2.88;;;2.38;;
23543;SDS011;11950;51.230;4.012;2022-07-22T11:31:56;4.45;;;2.70;;
23543;SDS011;11950;51.230;4.012;2022-07-22T11:34:24;5.32;;;2.60;;
23543;SDS011;11950;51.230;4.012;2022-07-22T11:36:51;4.82;;;2.92;;
23543;SDS011;11950;51.230;4.012;2022-07-22T11:39:20;6.35;;;3.47;;
23543;SDS011;11950;51.230;4.012;2022-07-22T11:41:48;4.35;;;3.22;;
23543;SDS011;11950;51.230;4.012;2022-07-22T11:44:18;5.68;;;3.05;;
23543;SDS011;11950;51.230;4.012;2022-07-22T11:46:49;6.63;;;3.42;;
23543;SDS011;11950;51.230;4.012;2022-07-22T11:49:18;7.35;;;3.63;;
23543;SDS011;11950;51.230;4.012;2022-07-22T11:51:45;4.78;;;4.25;;
23543;SDS011;11950;51.230;4.012;2022-07-22T11:54:12;5.13;;;3.70;;
23543;SDS011;11950;51.230;4.012;2022-07-22T11:56:39;5.03;;;3.78;;
23543;SDS011;11950;51.230;4.012;2022-07-22T11:59:06;5.10;;;3.95;;
23543;SDS011;11950;51.230;4.012;2022-07-22T12:01:37;6.53;;;4.30;;
23543;SDS011;11950;51.230;4.012;2022-07-22T12:06:32;6.18;;;3.50;;
23543;SDS011;11950;51.230;4.012;2022-07-22T12:11:36;8.73;;;4.68;;
23543;SDS011;11950;51.230;4.012;2022-07-22T12:14:06;6.07;;;4.50;;
23543;SDS011;11950;51.230;4.012;2022-07-22T12:16:43;8.95;;;5.10;;
23543;SDS011;11950;51.230;4.012;2022-07-22T12:19:19;6.68;;;4.55;;
23543;SDS011;11950;51.230;4.012;2022-07-22T12:21:50;6.20;;;4.03;;
23543;SDS011;11950;51.230;4.012;2022-07-22T12:24:58;6.15;;;5.10;;
23543;SDS011;11950;51.230;4.012;2022-07-22T12:27:16;4.88;;;4.13;;
23543;SDS011;11950;51.230;4.012;2022-07-22T12:29:44;6.70;;;4.20;;
23543;SDS011;11950;51.230;4.012;2022-07-22T12:40:07;7.75;;;5.13;;
23543;SDS011;11950;51.230;4.012;2022-07-22T12:42:41;8.38;;;5.05;;
23543;SDS011;11950;51.230;4.012;2022-07-22T12:45:10;5.85;;;5.18;;
23543;SDS011;11950;51.230;4.012;2022-07-22T12:52:59;7.85;;;5.78;;
23543;SDS011;11950;51.230;4.012;2022-07-22T12:55:31;10.18;;;6.53;;
23543;SDS011;11950;51.230;4.012;2022-07-22T12:57:58;7.20;;;5.75;;
23543;SDS011;11950;51.230;4.012;2022-07-22T13:00:26;8.30;;;5.53;;
23543;SDS011;11950;51.230;4.012;2022-07-22T13:03:03;9.00;;;6.22;;
23543;SDS011;11950;51.230;4.012;2022-07-22T13:05:29;9.68;;;7.10;;
23543;SDS011;11950;51.230;4.012;2022-07-22T13:07:56;8.48;;;6.60;;
23543;SDS011;11950;51.230;4.012;2022-07-22T13:10:23;7.32;;;5.78;;
23543;SDS011;11950;51.230;4.012;2022-07-22T13:12:51;6.60;;;6.05;;
23543;SDS011;11950;51.230;4.012;2022-07-22T13:15:18;6.22;;;5.63;;
23543;SDS011;11950;51.230;4.012;2022-07-22T13:17:45;7.05;;;6.22;;
23543;SDS011;11950;51.230;4.012;2022-07-22T13:20:12;6.93;;;6.22;;
23543;SDS011;11950;51.230;4.012;2022-07-22T13:22:39;6.10;;;5.55;;
23543;SDS011;11950;51.230;4.012;2022-07-22T13:25:06;15.88;;;8.10;;
23543;SDS011;11950;51.230;4.012;2022-07-22T13:27:32;9.35;;;6.82;;
23543;SDS011;11950;51.230;4.012;2022-07-22T13:29:59;10.10;;;7.47;;
23543;SDS011;11950;51.230;4.012;2022-07-22T13:32:25;8.40;;;7.22;;
23543;SDS011;11950;51.230;4.012;2022-07-22T13:34:51;9.55;;;6.90;;
23543;SDS011;11950;51.230;4.012;2022-07-22T13:37:17;8.27;;;7.38;;
23543;SDS011;11950;51.230;4.012;2022-07-22T13:39:44;9.32;;;7.50;;
23543;SDS011;11950;51.230;4.012;2022-07-22T13:42:12;8.60;;;7.80;;
23543;SDS011;11950;51.230;4.012;2022-07-22T13:44:38;8.32;;;7.57;;
23543;SDS011;11950;51.230;4.012;2022-07-22T13:47:05;11.23;;;8.00;;
23543;SDS011;11950;51.230;4.012;2022-07-22T13:49:31;8.70;;;7.20;;
23543;SDS011;11950;51.230;4.012;2022-07-22T13:51:57;8.40;;;6.75;;
23543;SDS011;11950;51.230;4.012;2022-07-22T13:54:23;13.32;;;7.07;;
23543;SDS011;11950;51.230;4.012;2022-07-22T13:56:50;9.10;;;8.10;;
23543;SDS011;11950;51.230;4.012;2022-07-22T13:59:16;9.23;;;6.82;;
23543;SDS011;11950;51.230;4.012;2022-07-22T14:01:42;9.13;;;7.03;;
23543;SDS011;11950;51.230;4.012;2022-07-22T14:04:09;8.00;;;6.88;;
23543;SDS011;11950;51.230;4.012;2022-07-22T14:06:35;9.00;;;7.55;;
23543;SDS011;11950;51.230;4.012;2022-07-22T14:09:02;8.23;;;7.40;;
23543;SDS011;11950;51.230;4.012;2022-07-22T14:11:29;8.68;;;7.18;;
23543;SDS011;11950;51.230;4.012;2022-07-22T14:13:55;12.05;;;6.40;;
23543;SDS011;11950;51.230;4.012;2022-07-22T14:16:22;10.95;;;7.30;;
23543;SDS011;11950;51.230;4.012;2022-07-22T14:21:29;8.57;;;7.70;;
23543;SDS011;11950;51.230;4.012;2022-07-22T14:23:56;8.98;;;7.35;;
23543;SDS011;11950;51.230;4.012;2022-07-22T14:26:22;10.50;;;7.47;;
23543;SDS011;11950;51.230;4.012;2022-07-22T14:28:49;7.85;;;7.15;;
23543;SDS011;11950;51.230;4.012;2022-07-22T14:31:15;9.65;;;8.02;;
23543;SDS011;11950;51.230;4.012;2022-07-22T14:33:41;9.63;;;8.07;;
23543;SDS011;11950;51.230;4.012;2022-07-22T14:36:07;7.78;;;6.97;;
23543;SDS011;11950;51.230;4.012;2022-07-22T14:38:34;8.93;;;8.02;;
23543;SDS011;11950;51.230;4.012;2022-07-22T14:41:00;9.80;;;7.55;;
23543;SDS011;11950;51.230;4.012;2022-07-22T14:43:26;8.13;;;7.43;;
23543;SDS011;11950;51.230;4.012;2022-07-22T14:45:53;9.35;;;8.18;;
23543;SDS011;11950;51.230;4.012;2022-07-22T14:48:19;9.80;;;7.10;;
23543;SDS011;11950;51.230;4.012;2022-07-22T14:50:45;9.57;;;7.88;;
23543;SDS011;11950;51.230;4.012;2022-07-22T14:53:12;9.77;;;6.93;;
23543;SDS011;11950;51.230;4.012;2022-07-22T14:55:39;7.38;;;6.63;;
23543;SDS011;11950;51.230;4.012;2022-07-22T14:58:06;10.95;;;7.10;;
23543;SDS011;11950;51.230;4.012;2022-07-22T15:00:32;8.05;;;7.25;;
23543;SDS011;11950;51.230;4.012;2022-07-22T15:02:58;7.97;;;6.88;;
23543;SDS011;11950;51.230;4.012;2022-07-22T15:05:25;7.97;;;6.88;;
23543;SDS011;11950;51.230;4.012;2022-07-22T15:07:51;7.68;;;6.97;;
23543;SDS011;11950;51.230;4.012;2022-07-22T15:10:17;8.70;;;7.32;;
23543;SDS011;11950;51.230;4.012;2022-07-22T15:12:43;9.55;;;6.88;;
23543;SDS011;11950;51.230;4.012;2022-07-22T15:15:10;7.28;;;6.13;;
23543;SDS011;11950;51.230;4.012;2022-07-22T15:17:37;6.75;;;5.93;;
23543;SDS011;11950;51.230;4.012;2022-07-22T15:20:04;6.30;;;5.72;;
23543;SDS011;11950;51.230;4.012;2022-07-22T15:22:32;5.55;;;4.93;;
23543;SDS011;11950;51.230;4.012;2022-07-22T15:24:59;9.02;;;6.18;;
23543;SDS011;11950;51.230;4.012;2022-07-22T15:27:25;8.75;;;5.22;;
23543;SDS011;11950;51.230;4.012;2022-07-22T15:29:52;9.13;;;5.45;;
23543;SDS011;11950;51.230;4.012;2022-07-22T15:32:18;8.75;;;4.70;;
23543;SDS011;11950;51.230;4.012;2022-07-22T15:34:44;8.00;;;4.90;;
23543;SDS011;11950;51.230;4.012;2022-07-22T15:37:11;5.40;;;3.80;;
23543;SDS011;11950;51.230;4.012;2022-07-22T15:39:37;6.28;;;5.40;;
23543;SDS011;11950;51.230;4.012;2022-07-22T15:42:04;7.22;;;6.18;;
23543;SDS011;11950;51.230;4.012;2022-07-22T15:44:30;18.02;;;12.80;;